createdAt,value
2023-05-24T00:00:33.727Z,12.11
2023-05-24T00:01:56.951Z,12.03
2023-05-24T00:03:21.608Z,11.69
2023-05-24T00:04:45.132Z,11.62
2023-05-24T00:06:08.296Z,11.18
2023-05-24T00:07:30.169Z,11.22
2023-05-24T00:08:53.076Z,11.08
2023-05-24T00:10:15.204Z,11.03
2023-05-24T00:11:38.060Z,11.21
2023-05-24T00:13:01.268Z,11.11
2023-05-24T00:14:24.060Z,11.23
2023-05-24T00:15:46.952Z,11.41
2023-05-24T00:17:08.816Z,11.41
2023-05-24T00:18:32.191Z,11.48
2023-05-24T00:19:54.172Z,11.60
2023-05-24T00:21:17.335Z,11.72
2023-05-24T00:22:40.656Z,11.75
2023-05-24T00:24:03.010Z,11.49
2023-05-24T00:25:25.903Z,11.55
2023-05-24T00:26:49.522Z,11.49
2023-05-24T00:28:13.664Z,11.41
2023-05-24T00:29:35.657Z,11.37
2023-05-24T00:30:58.481Z,11.29
2023-05-24T00:32:22.916Z,11.26
2023-05-24T00:33:45.767Z,11.20
2023-05-24T00:35:09.308Z,11.25
2023-05-24T00:36:33.043Z,11.19
2023-05-24T00:37:54.960Z,11.35
2023-05-24T00:39:17.806Z,11.54
2023-05-24T00:40:40.752Z,11.62
2023-05-24T00:42:02.806Z,11.48
2023-05-24T00:43:27.016Z,11.36
2023-05-24T00:44:49.805Z,11.41
2023-05-24T00:46:16.250Z,11.24
2023-05-24T00:47:39.306Z,11.39
2023-05-24T00:49:01.923Z,11.33
2023-05-24T00:50:25.012Z,11.31
2023-05-24T00:51:47.466Z,11.42
2023-05-24T00:53:10.603Z,11.29
2023-05-24T00:54:33.449Z,11.34
2023-05-24T00:55:55.709Z,11.29
2023-05-24T00:57:19.041Z,11.41
2023-05-24T00:58:43.020Z,11.43
2023-05-24T01:00:08.010Z,11.26
2023-05-24T01:01:31.652Z,11.36
2023-05-24T01:02:55.230Z,11.60
2023-05-24T01:04:20.373Z,11.62
2023-05-24T01:05:42.317Z,11.74
2023-05-24T01:07:14.266Z,11.84
2023-05-24T01:09:02.561Z,11.69
2023-05-24T01:10:35.903Z,11.49
2023-05-24T01:12:15.512Z,11.37
2023-05-24T01:13:48.634Z,11.26
2023-05-24T01:15:20.624Z,11.29
2023-05-24T01:16:51.748Z,11.13
2023-05-24T01:18:17.173Z,11.18
2023-05-24T01:19:59.979Z,11.37
2023-05-24T01:21:38.856Z,11.56
2023-05-24T01:23:07.506Z,11.50
2023-05-24T01:24:33.776Z,11.30
2023-05-24T01:26:19.706Z,11.10
2023-05-24T01:27:44.201Z,10.92
2023-05-24T01:29:08.340Z,11.10
2023-05-24T01:30:30.780Z,10.97
2023-05-24T01:31:53.779Z,11.10
2023-05-24T01:33:16.192Z,11.14
2023-05-24T01:34:39.029Z,11.16
2023-05-24T01:36:01.998Z,11.09
2023-05-24T01:37:23.850Z,11.18
2023-05-24T01:38:47.366Z,11.09
2023-05-24T01:40:10.999Z,10.98
2023-05-24T01:41:40.010Z,11.17
2023-05-24T01:43:13.268Z,11.11
2023-05-24T01:44:39.905Z,10.84
2023-05-24T01:46:12.759Z,10.76
2023-05-24T01:47:45.441Z,10.83
2023-05-24T01:49:15.899Z,10.81
2023-05-24T01:50:46.327Z,10.97
2023-05-24T01:52:12.566Z,10.74
2023-05-24T01:53:40.498Z,10.54
2023-05-24T01:55:05.259Z,10.42
2023-05-24T01:56:29.285Z,10.46
2023-05-24T01:57:53.132Z,10.73
2023-05-24T01:59:17.707Z,10.89
2023-05-24T02:00:42.120Z,10.97
2023-05-24T02:02:06.307Z,11.10
2023-05-24T02:03:29.212Z,11.00
2023-05-24T02:04:52.431Z,10.94
2023-05-24T02:06:14.512Z,10.92
2023-05-24T02:07:37.355Z,10.90
2023-05-24T02:08:59.239Z,10.90
2023-05-24T02:10:22.015Z,10.77
2023-05-24T02:11:43.916Z,10.55
2023-05-24T02:13:06.983Z,10.75
2023-05-24T02:14:31.620Z,10.82
2023-05-24T02:15:54.873Z,10.95
2023-05-24T02:17:17.925Z,10.91
2023-05-24T02:18:40.706Z,10.98
2023-05-24T02:20:04.165Z,10.97
2023-05-24T02:21:28.827Z,10.94
2023-05-24T02:22:52.161Z,10.86
2023-05-24T02:24:14.972Z,10.86
2023-05-24T02:25:37.841Z,10.70
2023-05-24T02:27:01.169Z,10.63
2023-05-24T02:28:23.066Z,10.61
2023-05-24T02:29:47.635Z,10.70
2023-05-24T02:31:10.557Z,10.88
2023-05-24T02:32:33.008Z,10.92
2023-05-24T02:33:55.950Z,10.93
2023-05-24T02:35:17.951Z,10.16
2023-05-24T02:36:40.817Z,10.40
2023-05-24T02:38:03.756Z,10.57
2023-05-24T02:39:26.709Z,10.48
2023-05-24T02:40:48.630Z,10.69
2023-05-24T02:42:11.483Z,10.76
2023-05-24T02:43:33.357Z,10.94
2023-05-24T02:44:57.502Z,10.86
2023-05-24T02:46:20.308Z,10.84
2023-05-24T02:47:42.292Z,10.90
2023-05-24T02:49:05.901Z,10.85
2023-05-24T02:50:28.703Z,10.88
2023-05-24T02:51:51.585Z,10.94
2023-05-24T02:53:14.398Z,10.81
2023-05-24T02:54:37.802Z,10.69
2023-05-24T02:56:01.030Z,10.60
2023-05-24T02:57:23.840Z,10.49
2023-05-24T02:58:46.121Z,10.63
2023-05-24T03:00:12.082Z,10.82
2023-05-24T03:01:34.391Z,10.72
2023-05-24T03:03:02.504Z,10.87
2023-05-24T03:04:25.023Z,10.89
2023-05-24T03:05:47.933Z,10.64
2023-05-24T03:07:10.764Z,10.75
2023-05-24T03:08:33.659Z,10.75
2023-05-24T03:09:55.584Z,10.67
2023-05-24T03:11:22.115Z,10.57
2023-05-24T03:12:45.280Z,10.78
2023-05-24T03:14:10.097Z,10.54
2023-05-24T03:15:34.265Z,10.55
2023-05-24T03:16:57.171Z,10.78
2023-05-24T03:18:19.023Z,10.78
2023-05-24T03:19:42.023Z,10.94
2023-05-24T03:21:05.147Z,10.81
2023-05-24T03:22:27.087Z,10.73
2023-05-24T03:23:50.513Z,10.64
2023-05-24T03:25:13.547Z,10.85
2023-05-24T03:26:35.792Z,10.82
2023-05-24T03:27:58.799Z,10.80
2023-05-24T03:29:21.635Z,10.72
2023-05-24T03:30:44.979Z,10.67
2023-05-24T03:32:07.930Z,10.79
2023-05-24T03:33:29.782Z,10.64
2023-05-24T03:34:52.932Z,10.56
2023-05-24T03:36:15.877Z,10.61
2023-05-24T03:37:38.885Z,10.53
2023-05-24T03:39:03.912Z,10.85
2023-05-24T03:40:28.678Z,11.07
2023-05-24T03:41:50.687Z,10.90
2023-05-24T03:43:13.584Z,10.81
2023-05-24T03:44:36.513Z,10.83
2023-05-24T03:46:00.759Z,10.56
2023-05-24T03:47:22.713Z,10.62
2023-05-24T03:48:45.576Z,10.77
2023-05-24T03:50:08.061Z,10.91
2023-05-24T03:51:30.879Z,10.81
2023-05-24T03:52:53.204Z,10.75
2023-05-24T03:54:17.012Z,10.89
2023-05-24T03:55:39.050Z,10.88
2023-05-24T03:57:02.621Z,11.16
2023-05-24T03:58:25.568Z,11.02
2023-05-24T03:59:48.392Z,10.87
2023-05-24T04:01:22.020Z,10.91
2023-05-24T04:02:53.237Z,11.14
2023-05-24T04:04:15.297Z,11.26
2023-05-24T04:05:38.208Z,11.17
2023-05-24T04:07:00.122Z,11.14
2023-05-24T04:08:23.057Z,11.26
2023-05-24T04:09:45.029Z,11.30
2023-05-24T04:11:07.890Z,11.47
2023-05-24T04:12:31.288Z,11.48
2023-05-24T04:13:53.201Z,11.43
2023-05-24T04:15:16.066Z,11.37
2023-05-24T04:16:39.668Z,11.49
2023-05-24T04:18:03.466Z,11.57
2023-05-24T04:19:26.544Z,11.42
2023-05-24T04:20:49.550Z,11.29
2023-05-24T04:22:12.407Z,11.38
2023-05-24T04:23:35.301Z,11.31
2023-05-24T04:24:58.214Z,11.31
2023-05-24T04:26:21.258Z,11.34
2023-05-24T04:27:44.820Z,11.26
2023-05-24T04:29:07.916Z,11.31
2023-05-24T04:30:30.281Z,11.34
2023-05-24T04:31:54.561Z,11.23
2023-05-24T04:33:17.581Z,11.06
2023-05-24T04:34:42.602Z,11.22
2023-05-24T04:36:05.859Z,11.26
2023-05-24T04:37:29.404Z,11.19
2023-05-24T04:38:53.731Z,11.29
2023-05-24T04:40:16.368Z,11.13
2023-05-24T04:41:39.178Z,11.21
2023-05-24T04:43:02.068Z,11.12
2023-05-24T04:44:24.238Z,10.84
2023-05-24T04:45:47.553Z,11.05
2023-05-24T04:47:10.866Z,11.09
2023-05-24T04:48:33.772Z,11.03
2023-05-24T04:49:55.634Z,11.13
2023-05-24T04:51:18.611Z,11.29
2023-05-24T04:52:41.483Z,11.44
2023-05-24T04:54:08.667Z,11.58
2023-05-24T04:55:32.677Z,11.69
2023-05-24T04:56:54.602Z,11.93
2023-05-24T04:58:18.108Z,12.07
2023-05-24T04:59:41.038Z,12.20
2023-05-24T05:01:03.903Z,12.17
2023-05-24T05:02:28.329Z,12.19
2023-05-24T05:03:50.267Z,12.37
2023-05-24T05:05:13.301Z,12.47
2023-05-24T05:06:38.600Z,12.61
2023-05-24T05:08:01.842Z,12.65
2023-05-24T05:09:28.197Z,12.79
2023-05-24T05:10:51.064Z,12.82
2023-05-24T05:12:14.230Z,12.54
2023-05-24T05:13:36.145Z,12.36
2023-05-24T05:14:59.024Z,11.95
2023-05-24T05:16:21.917Z,11.91
2023-05-24T05:17:46.430Z,11.91
2023-05-24T05:19:08.425Z,11.95
2023-05-24T05:20:31.312Z,11.89
2023-05-24T05:21:54.145Z,12.09
2023-05-24T05:23:17.103Z,12.11
2023-05-24T05:24:40.148Z,11.92
2023-05-24T05:26:03.079Z,11.99
2023-05-24T05:27:26.121Z,11.99
2023-05-24T05:28:47.982Z,12.09
2023-05-24T05:30:11.774Z,11.90
2023-05-24T05:31:34.698Z,11.84
2023-05-24T05:32:59.137Z,11.87
2023-05-24T05:34:22.200Z,11.70
2023-05-24T05:35:45.127Z,11.84
2023-05-24T05:37:08.602Z,11.83
2023-05-24T05:38:31.441Z,11.71
2023-05-24T05:39:54.239Z,11.74
2023-05-24T05:41:17.137Z,11.84
2023-05-24T05:42:40.005Z,11.77
2023-05-24T05:44:01.915Z,11.86
2023-05-24T05:45:25.523Z,12.14
2023-05-24T05:46:48.364Z,12.12
2023-05-24T05:48:12.659Z,12.29
2023-05-24T05:49:36.354Z,12.30
2023-05-24T05:50:59.203Z,12.39
2023-05-24T05:52:22.042Z,12.31
2023-05-24T05:53:44.881Z,12.18
2023-05-24T05:55:09.367Z,12.04
2023-05-24T05:56:32.301Z,12.22
2023-05-24T05:57:55.339Z,12.20
2023-05-24T05:59:18.230Z,12.40
2023-05-24T06:00:41.720Z,12.48
2023-05-24T06:02:05.805Z,12.68
2023-05-24T06:03:30.295Z,12.66
2023-05-24T06:04:53.598Z,12.56
2023-05-24T06:06:19.348Z,12.45
2023-05-24T06:07:42.224Z,12.41
2023-05-24T06:09:05.702Z,12.41
2023-05-24T06:10:28.902Z,12.48
2023-05-24T06:11:51.776Z,12.48
2023-05-24T06:13:14.836Z,12.49
2023-05-24T06:14:38.447Z,12.59
2023-05-24T06:16:01.471Z,12.68
2023-05-24T06:17:25.282Z,12.91
2023-05-24T06:19:01.527Z,12.68
2023-05-24T06:20:28.612Z,12.71
2023-05-24T06:21:51.752Z,12.91
2023-05-24T06:23:13.634Z,13.11
2023-05-24T06:24:36.775Z,13.07
2023-05-24T06:26:01.567Z,13.24
2023-05-24T06:27:24.509Z,13.07
2023-05-24T06:28:47.385Z,12.82
2023-05-24T06:30:11.053Z,12.96
2023-05-24T06:31:34.810Z,13.18
2023-05-24T06:32:58.235Z,13.39
2023-05-24T06:34:23.271Z,12.57
2023-05-24T06:35:46.141Z,12.72
2023-05-24T06:37:15.244Z,12.83
2023-05-24T06:38:39.073Z,12.84
2023-05-24T06:40:01.965Z,12.93
2023-05-24T06:41:24.829Z,13.24
2023-05-24T06:42:48.110Z,13.37
2023-05-24T06:44:11.069Z,13.49
2023-05-24T06:45:33.942Z,13.36
2023-05-24T06:46:56.819Z,13.38
2023-05-24T06:48:19.892Z,13.39
2023-05-24T06:49:44.237Z,13.64
2023-05-24T06:51:07.250Z,13.44
2023-05-24T06:52:30.093Z,13.15
2023-05-24T06:53:53.019Z,13.56
2023-05-24T06:55:15.898Z,13.79
2023-05-24T06:56:38.707Z,13.57
2023-05-24T06:58:01.663Z,13.76
2023-05-24T06:59:24.488Z,13.91
2023-05-24T07:00:46.762Z,14.06
2023-05-24T07:02:09.734Z,13.78
2023-05-24T07:03:32.926Z,14.01
2023-05-24T07:04:57.219Z,14.20
2023-05-24T07:06:20.239Z,14.24
2023-05-24T07:07:44.289Z,14.27
2023-05-24T07:09:07.531Z,14.44
2023-05-24T07:10:30.819Z,14.36
2023-05-24T07:11:52.883Z,14.46
2023-05-24T07:13:15.786Z,14.68
2023-05-24T07:14:38.626Z,14.33
2023-05-24T07:16:01.520Z,14.35
2023-05-24T07:17:23.701Z,14.38
2023-05-24T07:18:46.567Z,14.43
2023-05-24T07:20:13.785Z,14.48
2023-05-24T07:21:37.591Z,14.84
2023-05-24T07:23:01.197Z,14.62
2023-05-24T07:24:24.210Z,14.60
2023-05-24T07:25:47.076Z,14.72
2023-05-24T07:27:09.961Z,14.69
2023-05-24T07:28:33.023Z,14.68
2023-05-24T07:29:56.147Z,14.66
2023-05-24T07:31:18.983Z,14.63
2023-05-24T07:32:42.161Z,14.75
2023-05-24T07:34:05.219Z,14.81
2023-05-24T07:35:30.045Z,14.72
2023-05-24T07:36:52.887Z,14.61
2023-05-24T07:38:16.053Z,14.50
2023-05-24T07:39:39.097Z,14.49
2023-05-24T07:41:04.529Z,14.61
2023-05-24T07:42:27.367Z,14.60
2023-05-24T07:43:50.809Z,13.90
2023-05-24T07:45:14.156Z,14.03
2023-05-24T07:46:37.026Z,14.26
2023-05-24T07:47:59.952Z,14.36
2023-05-24T07:49:23.078Z,14.56
2023-05-24T07:50:48.676Z,14.88
2023-05-24T07:52:11.864Z,14.87
2023-05-24T07:53:35.531Z,13.82
2023-05-24T07:54:58.314Z,13.92
2023-05-24T07:56:21.183Z,14.27
2023-05-24T07:57:43.989Z,14.82
2023-05-24T07:59:06.874Z,15.00
2023-05-24T08:00:29.986Z,14.83
2023-05-24T08:01:52.982Z,14.87
2023-05-24T08:03:17.428Z,14.39
2023-05-24T08:04:40.450Z,14.52
2023-05-24T08:06:04.884Z,14.73
2023-05-24T08:07:28.851Z,14.93
2023-05-24T08:08:52.128Z,15.27
2023-05-24T08:10:14.982Z,15.39
2023-05-24T08:11:37.866Z,15.38
2023-05-24T08:13:01.373Z,15.12
2023-05-24T08:14:24.567Z,14.99
2023-05-24T08:15:47.569Z,15.64
2023-05-24T08:17:10.625Z,16.01
2023-05-24T08:18:33.444Z,15.90
2023-05-24T08:19:56.177Z,16.12
2023-05-24T08:21:20.543Z,16.12
2023-05-24T08:22:44.062Z,16.30
2023-05-24T08:24:09.278Z,16.21
2023-05-24T08:25:35.265Z,15.20
2023-05-24T08:26:58.192Z,15.52
2023-05-24T08:28:21.150Z,15.64
2023-05-24T08:29:44.078Z,15.96
2023-05-24T08:31:07.385Z,16.03
2023-05-24T08:32:29.849Z,16.06
2023-05-24T08:33:53.001Z,14.78
2023-05-24T08:36:43.840Z,15.27
2023-05-24T08:38:07.974Z,15.22
2023-05-24T08:39:31.091Z,15.40
2023-05-24T08:40:53.983Z,15.52
2023-05-24T08:42:17.420Z,15.63
2023-05-24T08:43:40.491Z,16.02
2023-05-24T08:45:09.361Z,16.10
2023-05-24T08:46:32.592Z,15.75
2023-05-24T08:47:57.009Z,15.96
2023-05-24T08:49:21.489Z,15.86
2023-05-24T08:50:45.028Z,15.80
2023-05-24T08:52:11.394Z,15.72
2023-05-24T08:53:37.555Z,15.99
2023-05-24T08:55:00.838Z,16.23
2023-05-24T08:56:24.142Z,16.13
2023-05-24T08:57:47.668Z,15.96
2023-05-24T08:59:13.521Z,15.96
2023-05-24T09:00:36.469Z,16.04
2023-05-24T09:02:00.846Z,16.11
2023-05-24T09:03:24.843Z,16.16
2023-05-24T09:04:50.717Z,16.23
2023-05-24T09:06:17.799Z,16.48
2023-05-24T09:07:43.992Z,16.51
2023-05-24T09:09:09.289Z,16.86
2023-05-24T09:10:49.222Z,16.99
2023-05-24T09:12:35.753Z,17.22
2023-05-24T09:14:01.386Z,17.53
2023-05-24T09:15:24.539Z,17.37
2023-05-24T09:16:47.591Z,16.74
2023-05-24T09:18:11.317Z,16.61
2023-05-24T09:19:34.211Z,16.08
2023-05-24T09:20:57.145Z,16.01
2023-05-24T09:22:23.469Z,15.74
2023-05-24T09:23:48.537Z,15.67
2023-05-24T09:25:13.913Z,15.81
2023-05-24T09:26:37.455Z,15.64
2023-05-24T09:28:07.469Z,15.81
2023-05-24T09:29:30.272Z,15.70
2023-05-24T09:31:02.379Z,14.79
2023-05-24T09:32:28.539Z,15.42
2023-05-24T09:33:52.031Z,15.73
2023-05-24T09:35:14.570Z,16.02
2023-05-24T09:36:43.187Z,16.39
2023-05-24T09:38:06.840Z,16.77
2023-05-24T09:39:32.336Z,16.72
2023-05-24T09:41:04.350Z,16.36
2023-05-24T09:42:30.512Z,16.24
2023-05-24T09:43:54.005Z,16.63
2023-05-24T09:45:18.490Z,16.68
2023-05-24T09:46:41.989Z,16.61
2023-05-24T09:48:11.756Z,16.60
2023-05-24T09:49:39.041Z,16.61
2023-05-24T09:51:07.687Z,15.83
2023-05-24T09:52:33.252Z,15.93
2023-05-24T09:53:59.850Z,16.36
2023-05-24T09:55:25.570Z,16.79
2023-05-24T09:56:49.939Z,16.73
2023-05-24T09:58:16.015Z,16.83
2023-05-24T09:59:42.017Z,17.06
2023-05-24T10:01:07.502Z,16.76
2023-05-24T10:02:41.557Z,16.77
2023-05-24T10:04:15.734Z,16.37
2023-05-24T10:05:40.298Z,16.29
2023-05-24T10:07:04.174Z,16.52
2023-05-24T10:08:28.169Z,16.44
2023-05-24T10:09:52.165Z,16.12
2023-05-24T10:11:18.034Z,16.15
2023-05-24T10:12:44.264Z,16.00
2023-05-24T10:14:08.531Z,16.28
2023-05-24T10:15:31.114Z,16.43
2023-05-24T10:16:54.641Z,16.68
2023-05-24T10:18:20.612Z,16.63
2023-05-24T10:19:44.323Z,16.94
2023-05-24T10:21:12.121Z,17.08
2023-05-24T10:22:42.042Z,17.13
2023-05-24T10:24:11.013Z,17.10
2023-05-24T10:25:36.383Z,16.53
2023-05-24T10:27:04.572Z,16.90
2023-05-24T10:28:29.122Z,16.37
2023-05-24T10:30:02.569Z,17.17
2023-05-24T10:31:29.748Z,17.31
2023-05-24T10:32:55.168Z,17.41
2023-05-24T10:34:19.158Z,17.89
2023-05-24T10:35:43.423Z,17.84
2023-05-24T10:37:08.506Z,17.90
2023-05-24T10:38:32.162Z,17.43
2023-05-24T10:39:56.377Z,17.23
2023-05-24T10:41:19.430Z,16.77
2023-05-24T10:42:44.687Z,16.77
2023-05-24T10:44:13.132Z,16.78
2023-05-24T10:45:39.289Z,17.03
2023-05-24T10:47:13.468Z,16.90
2023-05-24T10:48:38.760Z,16.86
2023-05-24T10:50:18.801Z,16.90
2023-05-24T10:51:42.328Z,16.64
2023-05-24T10:53:16.529Z,16.85
2023-05-24T10:54:46.931Z,16.62
2023-05-24T10:56:21.120Z,16.94
2023-05-24T10:57:51.266Z,16.51
2023-05-24T10:59:38.020Z,16.97
2023-05-24T11:01:02.068Z,17.05
2023-05-24T11:02:30.214Z,17.45
2023-05-24T11:03:54.061Z,17.76
2023-05-24T11:05:18.498Z,17.87
2023-05-24T11:06:48.804Z,17.45
2023-05-24T11:08:16.789Z,17.65
2023-05-24T11:09:46.782Z,17.31
2023-05-24T11:12:39.735Z,17.73
2023-05-24T11:14:04.729Z,18.60
2023-05-24T11:15:28.690Z,19.29
2023-05-24T11:16:52.675Z,18.82
2023-05-24T11:18:17.571Z,20.08
2023-05-24T11:19:48.225Z,21.27
2023-05-24T11:21:12.178Z,21.09
2023-05-24T11:22:36.169Z,21.28
2023-05-24T11:23:58.816Z,21.52
2023-05-24T11:25:22.699Z,22.39
2023-05-24T11:26:46.493Z,21.85
2023-05-24T11:28:11.308Z,19.64
2023-05-24T11:29:42.197Z,19.78
2023-05-24T11:31:10.131Z,20.25
2023-05-24T11:32:33.905Z,20.60
2023-05-24T11:33:57.588Z,19.86
2023-05-24T11:35:23.304Z,19.29
2023-05-24T11:36:47.487Z,19.11
2023-05-24T11:38:14.506Z,18.37
2023-05-24T11:39:39.384Z,17.80
2023-05-24T11:41:02.978Z,18.14
2023-05-24T11:42:27.762Z,18.64
2023-05-24T11:43:50.515Z,18.51
2023-05-24T11:45:16.278Z,18.04
2023-05-24T11:46:39.814Z,18.38
2023-05-24T11:48:06.583Z,18.83
2023-05-24T11:49:31.989Z,19.34
2023-05-24T11:50:55.697Z,19.66
2023-05-24T11:52:19.375Z,19.49
2023-05-24T11:53:43.005Z,19.70
2023-05-24T11:55:08.048Z,19.36
2023-05-24T11:56:34.240Z,19.05
2023-05-24T11:58:00.547Z,18.47
2023-05-24T11:59:28.240Z,18.15
2023-05-24T12:00:54.111Z,17.64
2023-05-24T12:02:18.163Z,17.63
2023-05-24T12:03:41.727Z,17.37
2023-05-24T12:05:14.221Z,17.53
2023-05-24T12:06:39.252Z,17.54
2023-05-24T12:08:07.669Z,17.47
2023-05-24T12:09:32.241Z,17.67
2023-05-24T12:10:56.186Z,17.89
2023-05-24T12:12:24.329Z,17.75
2023-05-24T12:13:50.789Z,17.65
2023-05-24T12:15:15.045Z,17.62
2023-05-24T12:16:40.656Z,17.75
2023-05-24T12:18:04.515Z,17.55
2023-05-24T12:19:35.070Z,17.44
2023-05-24T12:20:59.096Z,17.83
2023-05-24T12:22:31.074Z,18.08
2023-05-24T12:23:54.683Z,18.45
2023-05-24T12:25:20.587Z,18.63
2023-05-24T12:26:45.452Z,18.59
2023-05-24T12:28:08.906Z,18.47
2023-05-24T12:29:36.829Z,18.49
2023-05-24T12:31:00.632Z,18.60
2023-05-24T12:32:25.549Z,18.39
2023-05-24T12:33:52.152Z,18.91
2023-05-24T12:35:19.562Z,19.42
2023-05-24T12:36:44.404Z,19.58
2023-05-24T12:38:10.832Z,19.71
2023-05-24T12:39:38.558Z,20.01
2023-05-24T12:42:28.767Z,20.06
2023-05-24T12:43:53.998Z,20.41
2023-05-24T12:45:22.938Z,20.52
2023-05-24T12:46:46.600Z,19.89
2023-05-24T12:48:12.078Z,20.09
2023-05-24T12:49:35.469Z,19.89
2023-05-24T12:50:58.304Z,18.18
2023-05-24T12:52:21.172Z,18.59
2023-05-24T12:53:44.026Z,18.70
2023-05-24T12:55:08.340Z,18.64
2023-05-24T12:56:31.301Z,18.98
2023-05-24T12:57:54.907Z,19.25
2023-05-24T12:59:17.955Z,19.71
2023-05-24T13:00:41.850Z,20.44
2023-05-24T13:02:04.979Z,20.67
2023-05-24T13:03:29.191Z,20.68
2023-05-24T13:04:52.303Z,20.14
2023-05-24T13:06:15.206Z,20.00
2023-05-24T13:07:38.996Z,19.22
2023-05-24T13:09:02.030Z,19.16
2023-05-24T13:10:25.728Z,19.47
2023-05-24T13:11:48.757Z,19.55
2023-05-24T13:13:12.276Z,19.92
2023-05-24T13:14:35.338Z,19.92
2023-05-24T13:15:58.152Z,19.83
2023-05-24T13:17:21.152Z,18.32
2023-05-24T13:18:46.332Z,18.10
2023-05-24T13:20:11.360Z,18.61
2023-05-24T13:21:34.321Z,19.07
2023-05-24T13:22:57.155Z,19.39
2023-05-24T13:24:20.288Z,19.68
2023-05-24T13:25:43.279Z,20.02
2023-05-24T13:27:06.502Z,19.91
2023-05-24T13:28:31.172Z,19.64
2023-05-24T13:31:22.375Z,20.03
2023-05-24T13:32:45.300Z,20.10
2023-05-24T13:34:10.722Z,20.16
2023-05-24T13:35:33.702Z,20.28
2023-05-24T13:36:57.498Z,20.15
2023-05-24T13:38:20.970Z,20.40
2023-05-24T13:39:44.558Z,20.41
2023-05-24T13:41:08.026Z,21.00
2023-05-24T13:42:31.041Z,20.92
2023-05-24T13:43:54.427Z,21.23
2023-05-24T13:45:17.380Z,20.74
2023-05-24T13:46:41.214Z,20.54
2023-05-24T13:48:04.547Z,20.12
2023-05-24T13:49:29.164Z,20.50
2023-05-24T13:50:52.178Z,20.38
2023-05-24T13:52:14.995Z,20.63
2023-05-24T13:53:37.822Z,21.00
2023-05-24T13:55:01.479Z,21.11
2023-05-24T13:56:24.966Z,19.35
2023-05-24T13:57:51.778Z,18.88
2023-05-24T13:59:14.851Z,18.92
2023-05-24T14:00:37.678Z,18.86
2023-05-24T14:02:00.797Z,18.75
2023-05-24T14:03:24.349Z,18.39
2023-05-24T14:04:48.549Z,19.03
2023-05-24T14:06:11.474Z,19.51
2023-05-24T14:07:35.305Z,19.93
2023-05-24T14:08:59.290Z,19.81
2023-05-24T14:10:22.451Z,20.06
2023-05-24T14:11:45.445Z,20.29
2023-05-24T14:13:20.681Z,20.13
2023-05-24T14:16:16.926Z,19.74
2023-05-24T14:17:39.861Z,19.64
2023-05-24T14:19:02.789Z,19.71
2023-05-24T14:20:27.149Z,19.28
2023-05-24T14:21:49.979Z,19.11
2023-05-24T14:23:12.941Z,19.36
2023-05-24T14:24:35.801Z,19.53
2023-05-24T14:25:58.753Z,19.44
2023-05-24T14:27:21.663Z,19.59
2023-05-24T14:28:44.477Z,19.26
2023-05-24T14:30:08.674Z,19.01
2023-05-24T14:31:31.511Z,18.78
2023-05-24T14:32:54.517Z,18.98
2023-05-24T14:34:17.439Z,19.22
2023-05-24T14:35:42.143Z,19.45
2023-05-24T14:37:06.405Z,19.64
2023-05-24T14:38:29.330Z,19.39
2023-05-24T14:39:52.194Z,19.60
2023-05-24T14:41:16.303Z,19.66
2023-05-24T14:42:39.232Z,19.06
2023-05-24T14:44:02.318Z,19.33
2023-05-24T14:45:25.308Z,19.37
2023-05-24T14:46:48.266Z,19.48
2023-05-24T14:48:12.430Z,19.71
2023-05-24T14:49:35.502Z,19.99
2023-05-24T14:50:59.716Z,20.25
2023-05-24T14:52:22.553Z,19.40
2023-05-24T14:53:45.165Z,19.33
2023-05-24T14:55:08.724Z,18.19
2023-05-24T14:56:31.815Z,17.55
2023-05-24T14:57:53.841Z,17.36
2023-05-24T14:59:17.007Z,17.66
2023-05-24T15:00:40.865Z,17.75
2023-05-24T15:02:03.763Z,17.62
2023-05-24T15:03:26.812Z,17.54
2023-05-24T15:04:50.038Z,17.20
2023-05-24T15:06:14.413Z,17.71
2023-05-24T15:07:37.265Z,17.83
2023-05-24T15:09:00.657Z,17.86
2023-05-24T15:10:23.486Z,17.88
2023-05-24T15:11:46.397Z,18.01
2023-05-24T15:13:09.253Z,18.39
2023-05-24T15:14:32.409Z,18.53
2023-05-24T15:15:56.743Z,18.14
2023-05-24T15:17:21.612Z,18.20
2023-05-24T15:18:45.027Z,18.13
2023-05-24T15:20:08.825Z,18.25
2023-05-24T15:21:33.006Z,17.86
2023-05-24T15:22:55.864Z,17.31
2023-05-24T15:24:18.691Z,17.77
2023-05-24T15:25:42.871Z,17.52
2023-05-24T15:27:05.886Z,17.85
2023-05-24T15:28:28.748Z,17.83
2023-05-24T15:29:54.549Z,17.73
2023-05-24T15:31:17.420Z,17.93
2023-05-24T15:32:40.281Z,18.25
2023-05-24T15:34:04.891Z,18.68
2023-05-24T15:35:26.810Z,18.73
2023-05-24T15:36:51.091Z,18.71
2023-05-24T15:38:14.149Z,18.74
2023-05-24T15:39:36.902Z,18.24
2023-05-24T15:40:59.726Z,18.20
2023-05-24T15:42:24.582Z,18.30
2023-05-24T15:43:46.682Z,18.42
2023-05-24T15:45:11.052Z,18.14
2023-05-24T15:46:34.053Z,18.09
2023-05-24T15:47:57.163Z,18.14
2023-05-24T15:49:20.043Z,18.19
2023-05-24T15:52:10.780Z,17.83
2023-05-24T15:53:33.864Z,17.95
2023-05-24T15:54:56.707Z,18.21
2023-05-24T15:56:19.731Z,18.19
2023-05-24T15:57:42.656Z,17.82
2023-05-24T15:59:05.496Z,18.12
2023-05-24T16:00:28.550Z,18.07
2023-05-24T16:01:50.571Z,18.00
2023-05-24T16:03:16.055Z,18.00
2023-05-24T16:04:39.708Z,18.22
2023-05-24T16:06:02.553Z,18.24
2023-05-24T16:07:26.733Z,18.26
2023-05-24T16:08:50.259Z,18.37
2023-05-24T16:10:13.314Z,18.02
2023-05-24T16:11:36.608Z,18.06
2023-05-24T16:12:59.765Z,18.35
2023-05-24T16:14:22.801Z,18.45
2023-05-24T16:15:51.321Z,18.49
2023-05-24T16:17:15.003Z,18.42
2023-05-24T16:18:38.029Z,18.66
2023-05-24T16:20:01.428Z,18.54
2023-05-24T16:21:24.480Z,18.58
2023-05-24T16:22:49.841Z,18.83
2023-05-24T16:24:12.709Z,18.94
2023-05-24T16:25:34.607Z,18.66
2023-05-24T16:26:57.946Z,18.70
2023-05-24T16:28:23.799Z,18.73
2023-05-24T16:29:46.966Z,18.86
2023-05-24T16:31:09.970Z,18.37
2023-05-24T16:32:32.800Z,18.64
2023-05-24T16:33:55.681Z,18.86
2023-05-24T16:35:18.559Z,18.84
2023-05-24T16:36:40.904Z,18.97
2023-05-24T16:38:05.274Z,19.01
2023-05-24T16:39:28.168Z,18.83
2023-05-24T16:40:51.097Z,18.60
2023-05-24T16:42:13.869Z,18.69
2023-05-24T16:43:36.742Z,18.79
2023-05-24T16:44:59.567Z,18.81
2023-05-24T16:46:23.940Z,18.33
2023-05-24T16:47:47.034Z,18.35
2023-05-24T16:49:09.945Z,18.51
2023-05-24T16:50:33.700Z,18.44
2023-05-24T16:51:56.490Z,18.43
2023-05-24T16:53:22.963Z,18.15
2023-05-24T16:54:45.957Z,17.95
2023-05-24T16:56:08.801Z,18.11
2023-05-24T16:57:31.603Z,18.13
2023-05-24T16:58:54.485Z,18.29
2023-05-24T17:00:18.180Z,18.48
2023-05-24T17:01:40.962Z,18.37
2023-05-24T17:03:04.580Z,17.84
2023-05-24T17:04:27.594Z,17.71
2023-05-24T17:05:50.270Z,17.88
2023-05-24T17:07:13.087Z,17.89
2023-05-24T17:08:37.543Z,17.99
2023-05-24T17:10:00.637Z,17.83
2023-05-24T17:11:23.827Z,17.67
2023-05-24T17:12:47.464Z,17.72
2023-05-24T17:14:10.271Z,17.58
2023-05-24T17:15:33.055Z,17.65
2023-05-24T17:16:55.885Z,17.82
2023-05-24T17:18:19.080Z,17.74
2023-05-24T17:19:42.091Z,17.88
2023-05-24T17:21:05.843Z,17.88
2023-05-24T17:22:28.648Z,17.80
2023-05-24T17:23:52.787Z,17.76
2023-05-24T17:25:15.771Z,17.81
2023-05-24T17:26:39.013Z,17.73
2023-05-24T17:28:01.877Z,17.76
2023-05-24T17:29:26.394Z,17.64
2023-05-24T17:30:49.182Z,17.93
2023-05-24T17:32:12.051Z,18.04
2023-05-24T17:33:34.956Z,18.01
2023-05-24T17:34:57.878Z,17.77
2023-05-24T17:36:20.771Z,17.77
2023-05-24T17:37:43.611Z,17.84
2023-05-24T17:39:07.921Z,18.01
2023-05-24T17:40:30.792Z,17.93
2023-05-24T17:41:53.611Z,17.92
2023-05-24T17:43:16.435Z,17.93
2023-05-24T17:44:39.234Z,17.75
2023-05-24T17:46:06.327Z,17.79
2023-05-24T17:47:29.959Z,17.85
2023-05-24T17:48:52.886Z,17.73
2023-05-24T17:50:14.876Z,17.47
2023-05-24T17:51:38.986Z,17.46
2023-05-24T17:53:01.801Z,17.51
2023-05-24T17:54:28.687Z,17.48
2023-05-24T17:55:51.759Z,17.54
2023-05-24T17:57:14.612Z,17.48
2023-05-24T17:58:37.846Z,17.34
2023-05-24T18:00:00.854Z,17.38
2023-05-24T18:01:23.897Z,17.34
2023-05-24T18:02:46.947Z,17.31
2023-05-24T18:04:10.710Z,17.28
2023-05-24T18:05:33.542Z,17.37
2023-05-24T18:06:56.590Z,17.32
2023-05-24T18:08:19.425Z,17.30
2023-05-24T18:09:43.592Z,17.26
2023-05-24T18:11:09.430Z,17.23
2023-05-24T18:12:32.542Z,16.98
2023-05-24T18:13:55.497Z,16.62